Time;durP1;ratioP1;P1;durP2;ratioP2;P2;SDS_P1;SDS_P2;PMS_P1;PMS_P2;Temp;Humidity;BMP_temperature;BMP_pressure;BME280_temperature;BME280_humidity;BME280_pressure;Samples;Min_cycle;Max_cycle;Signal;HPM_P1;HPM_P2
2021/05/09 00:01:03;;;;;;;1.87;1.43;;;;;;;12.59;62.34;96358.13;5032057;28;20548;-61
2021/05/09 00:03:28;;;;;;;1.47;1.37;;;;;;;12.62;62.14;96357.63;5031766;28;20190;-61
2021/05/09 00:05:54;;;;;;;2.97;1.77;;;;;;;12.62;62.41;96347.09;5031406;28;20498;-62
2021/05/09 00:08:19;;;;;;;1.50;1.40;;;;;;;12.60;62.35;96346.53;5013806;28;20193;-62
2021/05/09 00:10:45;;;;;;;1.27;1.17;;;;;;;12.59;62.57;96344.97;5031043;28;20297;-62
2021/05/09 00:13:10;;;;;;;1.60;1.50;;;;;;;12.65;62.15;96337.94;5031709;28;20182;-62
2021/05/09 00:15:36;;;;;;;1.47;1.37;;;;;;;12.62;62.58;96336.56;5031346;28;20236;-62
2021/05/09 00:18:02;;;;;;;1.70;1.60;;;;;;;12.49;63.31;96336.97;5030599;28;20265;-63
2021/05/09 00:20:27;;;;;;;1.40;1.30;;;;;;;12.52;63.07;96333.06;5031171;28;20679;-63
2021/05/09 00:22:53;;;;;;;1.40;1.30;;;;;;;12.40;63.67;96325.34;5031233;28;20182;-63
2021/05/09 00:25:19;;;;;;;1.20;1.20;;;;;;;12.34;63.88;96324.50;5031012;28;20597;-63
2021/05/09 00:27:44;;;;;;;1.27;1.17;;;;;;;12.52;62.73;96319.94;5031253;28;20183;-63
2021/05/09 00:30:10;;;;;;;1.50;1.30;;;;;;;12.58;62.71;96314.47;5031375;28;20224;-63
2021/05/09 00:32:36;;;;;;;1.50;1.40;;;;;;;12.37;63.15;96310.84;5030973;28;20179;-63
2021/05/09 00:35:02;;;;;;;3.33;1.60;;;;;;;12.42;63.33;96312.75;5030817;28;20697;-63
2021/05/09 00:37:28;;;;;;;1.10;1.10;;;;;;;12.41;63.39;96311.97;5013529;28;20179;-61
2021/05/09 00:39:53;;;;;;;1.40;1.30;;;;;;;12.35;63.50;96307.69;5030411;28;20193;-62
2021/05/09 00:42:19;;;;;;;1.13;1.10;;;;;;;12.41;63.26;96298.03;5031115;28;20186;-63
2021/05/09 00:44:44;;;;;;;1.43;1.27;;;;;;;12.45;63.12;96299.91;5030585;28;20209;-63
2021/05/09 00:47:12;;;;;;;1.50;1.40;;;;;;;12.39;63.38;96303.50;5031732;28;20178;-62
2021/05/09 00:49:38;;;;;;;1.40;1.30;;;;;;;12.29;63.97;96311.31;5030757;28;20254;-63
2021/05/09 00:52:06;;;;;;;2.20;1.17;;;;;;;12.37;63.80;96296.94;5021622;28;20197;-62
2021/05/09 00:54:33;;;;;;;1.43;1.23;;;;;;;12.46;63.52;96287.53;5031094;28;20603;-62
2021/05/09 00:56:59;;;;;;;1.50;1.40;;;;;;;12.48;63.15;96291.50;5030354;28;20177;-62
2021/05/09 00:59:36;;;;;;;1.07;1.07;;;;;;;12.40;63.82;96286.72;5031150;28;20559;-62
2021/05/09 01:02:01;;;;;;;1.37;1.27;;;;;;;12.50;63.24;96289.41;5030387;28;20237;-62
2021/05/09 01:04:27;;;;;;;1.07;1.07;;;;;;;12.49;63.61;96282.56;5030651;28;20194;-62
2021/05/09 01:06:53;;;;;;;1.77;1.30;;;;;;;12.50;63.50;96291.25;5029779;28;20183;-63
2021/05/09 01:09:19;;;;;;;1.67;1.57;;;;;;;12.59;63.32;96289.75;5031344;28;20218;-62
2021/05/09 01:11:44;;;;;;;1.50;1.40;;;;;;;12.46;63.57;96284.91;5030004;28;20183;-62
2021/05/09 01:14:10;;;;;;;1.70;1.60;;;;;;;12.25;64.32;96276.06;5031243;28;20183;-61
2021/05/09 01:16:35;;;;;;;2.23;1.80;;;;;;;12.19;64.31;96284.94;5029721;28;20218;-62
2021/05/09 01:19:01;;;;;;;1.80;1.70;;;;;;;12.24;64.63;96279.75;5012225;28;20252;-61
2021/05/09 01:21:26;;;;;;;1.90;1.80;;;;;;;12.24;64.37;96273.69;5030431;28;20171;-61
2021/05/09 01:23:52;;;;;;;1.93;1.83;;;;;;;12.07;65.20;96279.84;5030498;28;20684;-63
2021/05/09 01:26:17;;;;;;;2.13;1.93;;;;;;;11.96;65.73;96272.91;5027711;28;20182;-62
2021/05/09 01:28:45;;;;;;;1.80;1.70;;;;;;;11.96;65.50;96267.66;5029763;28;20261;-62
2021/05/09 01:31:11;;;;;;;1.80;1.70;;;;;;;11.77;66.47;96274.25;5034833;28;20182;-62
2021/05/09 01:33:36;;;;;;;2.30;2.10;;;;;;;11.82;66.28;96274.31;5034948;28;20179;-63
2021/05/09 01:36:02;;;;;;;2.40;2.10;;;;;;;11.82;66.71;96270.88;5033999;28;20673;-62
2021/05/09 01:38:27;;;;;;;2.33;2.13;;;;;;;11.85;66.30;96279.09;5034626;28;20187;-61
2021/05/09 01:40:53;;;;;;;1.93;1.80;;;;;;;11.75;66.38;96272.94;5034279;28;20678;-62
2021/05/09 01:43:18;;;;;;;2.03;1.87;;;;;;;11.81;66.53;96267.50;5035140;28;20183;-62
2021/05/09 01:45:44;;;;;;;2.27;2.07;;;;;;;11.80;66.52;96271.16;5034103;28;20543;-62
2021/05/09 01:48:09;;;;;;;1.90;1.80;;;;;;;11.73;66.53;96273.19;5034568;28;20261;-62
2021/05/09 01:50:34;;;;;;;2.43;1.73;;;;;;;11.62;67.21;96280.13;5016556;28;20210;-62
2021/05/09 01:53:01;;;;;;;2.00;1.70;;;;;;;11.58;67.01;96265.91;5034165;28;20198;-62
2021/05/09 01:55:26;;;;;;;1.80;1.70;;;;;;;11.52;67.79;96268.72;5034436;28;20210;-62
2021/05/09 01:57:52;;;;;;;1.97;1.87;;;;;;;11.61;67.12;96264.59;5034349;28;20215;-62
2021/05/09 02:00:19;;;;;;;1.77;1.67;;;;;;;11.52;67.58;96261.63;5016326;28;20679;-62
2021/05/09 02:02:45;;;;;;;2.10;1.80;;;;;;;11.56;67.20;96267.97;5032913;28;20202;-62
2021/05/09 02:05:11;;;;;;;2.77;1.90;;;;;;;11.45;67.46;96270.72;5016101;28;20214;-62
2021/05/09 02:07:37;;;;;;;3.17;2.03;;;;;;;11.45;67.56;96266.25;5034427;28;20250;-62
2021/05/09 02:10:05;;;;;;;1.90;1.80;;;;;;;11.35;68.20;96263.53;5032776;28;20202;-62
2021/05/09 02:12:31;;;;;;;1.90;1.80;;;;;;;11.33;68.19;96262.97;5034393;28;20193;-62
2021/05/09 02:14:56;;;;;;;1.90;1.67;;;;;;;11.32;67.80;96258.75;5015603;28;21012;-62
2021/05/09 02:17:21;;;;;;;1.97;1.80;;;;;;;11.37;68.14;96258.81;5033571;28;20187;-62
2021/05/09 02:19:47;;;;;;;3.13;1.80;;;;;;;11.23;68.87;96254.97;5033053;28;20695;-62
2021/05/09 02:22:13;;;;;;;1.90;1.80;;;;;;;11.24;68.83;96252.13;5034225;28;20537;-62
2021/05/09 02:24:38;;;;;;;2.60;1.80;;;;;;;11.34;68.02;96248.81;5033830;28;20221;-62
2021/05/09 02:27:04;;;;;;;2.20;2.00;;;;;;;11.31;67.88;96246.69;5033429;28;20276;-62
2021/05/09 02:29:29;;;;;;;2.60;1.97;;;;;;;11.17;68.46;96248.88;5032959;28;20211;-62
2021/05/09 02:31:55;;;;;;;2.13;1.90;;;;;;;11.12;68.57;96246.19;5033058;28;20277;-62
2021/05/09 02:34:20;;;;;;;1.77;1.47;;;;;;;11.18;68.41;96244.41;5033315;28;20704;-62
2021/05/09 02:36:45;;;;;;;1.97;1.73;;;;;;;11.23;68.43;96249.72;5032940;28;20178;-62
2021/05/09 02:39:12;;;;;;;2.23;1.93;;;;;;;11.20;68.56;96252.84;5033442;28;20228;-62
2021/05/09 02:41:37;;;;;;;1.90;1.80;;;;;;;11.30;67.61;96241.69;5032154;28;20209;-62
2021/05/09 02:44:04;;;;;;;2.10;1.90;;;;;;;11.17;68.63;96248.88;5033555;28;20222;-62
2021/05/09 02:46:29;;;;;;;2.27;2.07;;;;;;;11.11;68.68;96247.22;5034107;28;20182;-62
2021/05/09 02:48:55;;;;;;;1.73;1.63;;;;;;;11.07;69.00;96237.44;5032943;28;20221;-62
2021/05/09 02:51:20;;;;;;;1.80;1.70;;;;;;;11.25;68.72;96245.03;5033055;28;20206;-62
2021/05/09 02:53:45;;;;;;;2.43;1.90;;;;;;;11.11;69.17;96241.97;5032795;28;20183;-62
2021/05/09 02:56:11;;;;;;;2.27;2.07;;;;;;;11.19;68.63;96240.75;5033428;28;20635;-62
2021/05/09 02:58:36;;;;;;;1.57;1.40;;;;;;;11.25;68.63;96247.66;5033743;28;20182;-62
2021/05/09 03:01:02;;;;;;;1.77;1.67;;;;;;;11.25;68.14;96250.28;5032164;28;20647;-62
2021/05/09 03:03:28;;;;;;;1.97;1.83;;;;;;;11.32;67.75;96237.75;5032813;28;20214;-62
2021/05/09 03:05:53;;;;;;;1.90;1.80;;;;;;;11.26;68.08;96239.53;5032313;28;20218;-62
2021/05/09 03:08:19;;;;;;;1.70;1.60;;;;;;;11.30;67.83;96247.72;5032733;28;20183;-62
2021/05/09 03:10:44;;;;;;;1.73;1.63;;;;;;;11.36;67.83;96245.94;5031755;28;20663;-63
2021/05/09 03:13:11;;;;;;;2.00;1.90;;;;;;;11.37;67.79;96250.16;5032971;28;20585;-62
2021/05/09 03:15:36;;;;;;;1.70;1.60;;;;;;;11.34;67.54;96248.00;5032969;28;20197;-62
2021/05/09 03:18:01;;;;;;;2.13;2.00;;;;;;;11.41;67.45;96251.25;5031484;28;20182;-62
2021/05/09 03:20:27;;;;;;;1.77;1.67;;;;;;;11.37;67.65;96253.56;5032727;28;20226;-62
2021/05/09 03:22:52;;;;;;;2.93;1.80;;;;;;;11.38;67.61;96244.66;5031961;28;20606;-62
2021/05/09 03:25:18;;;;;;;2.07;1.93;;;;;;;11.27;67.95;96238.50;5032546;28;20663;-62
2021/05/09 03:27:43;;;;;;;1.63;1.53;;;;;;;11.29;68.50;96240.88;5032558;28;20182;-62
2021/05/09 03:30:09;;;;;;;1.90;1.80;;;;;;;11.24;68.77;96238.19;5014552;28;20225;-61
2021/05/09 03:32:35;;;;;;;2.00;1.80;;;;;;;11.22;68.29;96238.44;5033061;28;20640;-62
2021/05/09 03:35:00;;;;;;;2.03;1.93;;;;;;;11.24;68.78;96235.56;5031683;28;20201;-62
2021/05/09 03:37:25;;;;;;;1.57;1.47;;;;;;;11.17;68.92;96235.75;5032331;28;20179;-62
2021/05/09 03:39:51;;;;;;;1.80;1.70;;;;;;;11.18;68.40;96233.94;5031776;28;20183;-62
2021/05/09 03:42:16;;;;;;;3.20;1.80;;;;;;;11.07;69.17;96233.00;5032457;28;20198;-62
2021/05/09 03:44:41;;;;;;;1.40;1.40;;;;;;;11.16;68.88;96235.97;5032467;28;20274;-62
2021/05/09 03:47:07;;;;;;;1.60;1.50;;;;;;;11.19;68.62;96230.28;5031869;28;20221;-62
2021/05/09 03:49:32;;;;;;;1.70;1.50;;;;;;;11.25;68.39;96230.09;5032607;28;20206;-62
2021/05/09 03:51:57;;;;;;;1.40;1.30;;;;;;;11.23;68.28;96228.75;5031648;28;20182;-62
2021/05/09 03:54:23;;;;;;;1.70;1.60;;;;;;;11.33;68.25;96228.06;5031954;28;20179;-62
2021/05/09 03:56:48;;;;;;;1.70;1.60;;;;;;;11.25;68.39;96219.59;5031643;28;20190;-62
2021/05/09 03:59:14;;;;;;;2.13;1.60;;;;;;;11.27;68.48;96221.97;5032438;28;20270;-62
2021/05/09 04:01:39;;;;;;;1.93;1.83;;;;;;;11.33;68.17;96218.34;5031645;28;20222;-62
2021/05/09 04:04:05;;;;;;;1.70;1.60;;;;;;;11.33;68.39;96228.06;5030784;28;20187;-62
2021/05/09 04:06:30;;;;;;;1.50;1.40;;;;;;;11.37;68.28;96224.69;5032020;28;20186;-62
2021/05/09 04:08:56;;;;;;;1.67;1.40;;;;;;;11.41;68.27;96223.19;5030928;28;20286;-62
2021/05/09 04:11:21;;;;;;;1.90;1.80;;;;;;;11.56;67.61;96225.19;5031650;28;20580;-62
2021/05/09 04:13:49;;;;;;;1.70;1.60;;;;;;;11.47;67.68;96221.41;5030642;28;20588;-62
2021/05/09 04:16:14;;;;;;;1.80;1.70;;;;;;;11.54;67.08;96217.53;5031968;28;20498;-61
2021/05/09 04:18:40;;;;;;;1.80;1.70;;;;;;;11.50;67.36;96219.09;5031271;28;20187;-61
2021/05/09 04:21:06;;;;;;;1.77;1.67;;;;;;;11.59;67.21;96225.47;5031184;28;20580;-61
2021/05/09 04:23:32;;;;;;;1.77;1.50;;;;;;;11.45;67.77;96216.41;5031908;28;20187;-61
2021/05/09 04:25:57;;;;;;;1.60;1.50;;;;;;;11.45;67.57;96213.78;5030928;28;20182;-62
2021/05/09 04:28:23;;;;;;;1.77;1.67;;;;;;;11.49;67.90;96217.50;5031788;28;20540;-62
2021/05/09 04:30:49;;;;;;;2.30;2.00;;;;;;;11.63;67.38;96225.78;5030935;28;20222;-62
2021/05/09 04:33:15;;;;;;;1.77;1.63;;;;;;;11.62;67.47;96217.13;5031459;28;20216;-62
2021/05/09 04:35:42;;;;;;;1.57;1.47;;;;;;;11.68;67.06;96215.34;5031524;28;20687;-62
2021/05/09 04:38:09;;;;;;;1.80;1.60;;;;;;;11.78;66.79;96219.91;5030554;28;20183;-62
2021/05/09 04:40:34;;;;;;;1.80;1.70;;;;;;;11.76;66.84;96214.91;5031411;28;20194;-62
2021/05/09 04:43:17;;;;;;;2.00;1.80;;;;;;;11.93;66.60;96218.22;5030786;28;20178;-62
2021/05/09 04:45:47;;;;;;;1.70;1.60;;;;;;;12.15;65.80;96217.41;5025032;28;20185;-62
2021/05/09 04:48:13;;;;;;;4.57;1.60;;;;;;;12.19;65.88;96206.13;5031138;28;20183;-62
2021/05/09 04:50:39;;;;;;;1.93;1.83;;;;;;;12.24;65.41;96208.00;5031087;28;20531;-62
2021/05/09 04:53:25;;;;;;;1.83;1.70;;;;;;;12.17;66.34;96213.47;5030524;28;20800;-62
2021/05/09 04:55:52;;;;;;;1.83;1.73;;;;;;;12.13;66.12;96208.97;5030771;28;20289;-62
2021/05/09 04:58:17;;;;;;;1.87;1.77;;;;;;;12.25;65.71;96212.22;5030792;28;20258;-62
2021/05/09 05:00:43;;;;;;;1.97;1.83;;;;;;;12.30;65.35;96201.75;5030057;28;20230;-63
2021/05/09 05:03:08;;;;;;;1.90;1.80;;;;;;;12.34;65.12;96210.69;5030276;28;20191;-62
2021/05/09 05:05:33;;;;;;;2.10;1.90;;;;;;;12.48;64.70;96212.63;5012816;28;20179;-62
2021/05/09 05:07:59;;;;;;;1.67;1.57;;;;;;;12.28;64.96;96211.69;5030379;28;20186;-62
2021/05/09 05:10:24;;;;;;;2.23;2.10;;;;;;;12.50;64.43;96207.94;5031056;28;20211;-62
2021/05/09 05:12:49;;;;;;;1.83;1.73;;;;;;;12.45;64.50;96212.34;5030323;28;20635;-63
2021/05/09 05:15:15;;;;;;;1.80;1.70;;;;;;;12.31;64.89;96211.22;5030884;28;20182;-62
2021/05/09 05:17:40;;;;;;;1.80;1.70;;;;;;;12.31;65.16;96212.00;5030468;28;20198;-62
2021/05/09 05:20:06;;;;;;;2.30;2.10;;;;;;;12.40;64.91;96223.63;5030620;28;20198;-62
2021/05/09 05:22:31;;;;;;;1.80;1.70;;;;;;;12.37;65.90;96216.22;5030908;28;20631;-62
2021/05/09 05:24:57;;;;;;;1.67;1.57;;;;;;;12.47;64.38;96223.44;5030061;28;20294;-62
2021/05/09 05:27:22;;;;;;;2.00;1.77;;;;;;;12.49;64.52;96226.56;5031133;28;20191;-62
2021/05/09 05:29:48;;;;;;;2.90;1.77;;;;;;;12.40;64.71;96221.00;5030019;28;20210;-62
2021/05/09 05:32:13;;;;;;;2.10;2.00;;;;;;;12.54;64.45;96220.59;5030754;28;20551;-62
2021/05/09 05:34:38;;;;;;;2.30;2.10;;;;;;;12.48;65.01;96235.53;5030764;28;20270;-62
2021/05/09 05:37:04;;;;;;;2.77;1.90;;;;;;;12.55;64.62;96220.31;5030116;28;20811;-62
2021/05/09 05:39:29;;;;;;;2.57;2.10;;;;;;;12.56;64.59;96221.91;5030857;28;20198;-62
2021/05/09 05:41:56;;;;;;;1.90;1.80;;;;;;;13.00;63.67;96219.00;5029946;28;20183;-62
2021/05/09 05:44:22;;;;;;;1.80;1.70;;;;;;;13.42;62.91;96219.78;5029977;28;20185;-63
2021/05/09 05:46:47;;;;;;;2.83;1.60;;;;;;;13.86;61.44;96219.34;5029533;28;20183;-63
2021/05/09 05:49:13;;;;;;;1.80;1.70;;;;;;;14.33;60.10;96219.13;5030605;28;20234;-63
2021/05/09 05:51:38;;;;;;;2.27;2.07;;;;;;;14.60;59.46;96221.53;5030585;28;20658;-63
2021/05/09 05:54:04;;;;;;;1.77;1.67;;;;;;;14.92;58.23;96211.44;5030166;28;20193;-63
2021/05/09 05:56:30;;;;;;;2.13;1.87;;;;;;;15.18;57.73;96212.16;5030685;28;20194;-61
2021/05/09 05:58:55;;;;;;;3.22;1.77;;;;;;;15.48;56.75;96213.91;5029533;28;20205;-63
2021/05/09 06:01:21;;;;;;;2.13;2.03;;;;;;;15.68;55.70;96219.09;5030303;28;20285;-61
2021/05/09 06:03:46;;;;;;;2.03;1.92;;;;;;;15.87;55.34;96216.63;5029631;28;20532;-61
2021/05/09 06:06:12;;;;;;;1.80;1.70;;;;;;;16.03;55.30;96216.25;5030594;28;20186;-62
2021/05/09 06:08:38;;;;;;;1.88;1.77;;;;;;;16.27;55.31;96216.38;5030362;28;20218;-61
2021/05/09 06:11:04;;;;;;;2.47;2.00;;;;;;;16.45;54.58;96215.66;5029680;28;20230;-62
2021/05/09 06:13:29;;;;;;;2.00;1.90;;;;;;;16.67;53.98;96217.88;5030813;28;20211;-61
2021/05/09 06:15:55;;;;;;;2.13;2.00;;;;;;;16.78;53.87;96213.28;5030693;28;20199;-61
2021/05/09 06:18:20;;;;;;;1.90;1.80;;;;;;;16.92;53.91;96222.16;5034236;28;20186;-62
2021/05/09 06:20:46;;;;;;;2.10;1.90;;;;;;;16.98;53.83;96219.19;5033415;28;20199;-61
2021/05/09 06:23:11;;;;;;;2.00;1.90;;;;;;;17.20;53.09;96217.91;5034201;28;20213;-61
2021/05/09 06:25:38;;;;;;;2.65;1.60;;;;;;;17.26;52.39;96219.41;5034058;28;20198;-60
2021/05/09 06:28:04;;;;;;;1.83;1.73;;;;;;;17.39;51.98;96210.75;5033585;28;20187;-60
2021/05/09 06:30:29;;;;;;;1.80;1.70;;;;;;;17.44;52.42;96210.72;5034171;28;20665;-60
2021/05/09 06:32:55;;;;;;;2.00;1.90;;;;;;;17.34;53.46;96205.53;5032605;28;20202;-61
2021/05/09 06:35:21;;;;;;;1.50;1.33;;;;;;;17.85;65.94;96208.34;5033404;28;20195;-62
2021/05/09 06:37:49;;;;;;;2.05;1.90;;;;;;;18.28;54.48;96212.47;5032992;28;20273;-62
2021/05/09 06:40:15;;;;;;;5.45;1.75;;;;;;;18.34;52.39;96204.44;5034060;28;20182;-60
2021/05/09 06:42:40;;;;;;;2.13;1.98;;;;;;;18.13;52.38;96206.63;5033659;28;20213;-61
2021/05/09 06:45:11;;;;;;;2.42;1.95;;;;;;;18.10;53.02;96205.34;5032996;28;20191;-61
2021/05/09 06:47:36;;;;;;;1.70;1.70;;;;;;;18.13;53.09;96210.06;5033349;28;20225;-60
2021/05/09 06:50:02;;;;;;;2.22;2.00;;;;;;;18.20;51.29;96209.69;5032589;28;20210;-61
2021/05/09 06:52:27;;;;;;;1.77;1.67;;;;;;;18.32;50.65;96212.69;5033470;28;20206;-61
2021/05/09 06:54:53;;;;;;;2.00;1.90;;;;;;;18.40;50.71;96212.03;5033154;28;20187;-61
2021/05/09 06:57:18;;;;;;;1.80;1.70;;;;;;;18.35;51.14;96209.47;5030465;28;20278;-61
2021/05/09 06:59:43;;;;;;;2.00;1.90;;;;;;;18.32;51.51;96209.25;5033061;28;20197;-62
2021/05/09 07:02:09;;;;;;;1.80;1.63;;;;;;;18.55;51.11;96211.03;5032336;28;20547;-62
2021/05/09 07:04:35;;;;;;;1.90;1.80;;;;;;;18.55;50.42;96216.34;5033251;28;20178;-61
2021/05/09 07:07:00;;;;;;;2.00;1.90;;;;;;;18.67;49.92;96204.16;5032611;28;20178;-62
2021/05/09 07:09:25;;;;;;;2.13;1.67;;;;;;;18.76;49.85;96201.66;5033418;28;20601;-61
2021/05/09 07:11:51;;;;;;;1.80;1.70;;;;;;;18.97;49.05;96196.75;5031319;28;20197;-61
2021/05/09 07:14:16;;;;;;;1.70;1.70;;;;;;;19.04;48.59;96194.50;5033027;28;20265;-61
2021/05/09 07:16:41;;;;;;;2.28;1.75;;;;;;;19.18;47.62;96200.59;5031778;28;20267;-61
2021/05/09 07:19:08;;;;;;;1.77;1.77;;;;;;;19.39;46.79;96209.72;5031982;28;20194;-61
2021/05/09 07:21:46;;;;;;;1.55;1.55;;;;;;;19.51;46.85;96203.94;5032292;28;20183;-61
2021/05/09 07:24:12;;;;;;;1.67;1.58;;;;;;;19.67;45.56;96199.13;5031989;28;20185;-61
2021/05/09 07:26:37;;;;;;;1.40;1.40;;;;;;;19.74;45.63;96205.59;5031860;28;20539;-60
2021/05/09 07:29:03;;;;;;;1.90;1.80;;;;;;;19.85;45.77;96200.81;5031092;28;20552;-61
2021/05/09 07:31:29;;;;;;;1.73;1.63;;;;;;;19.96;45.68;96204.84;5032424;28;20627;-61
2021/05/09 07:33:54;;;;;;;2.08;1.83;;;;;;;19.97;45.60;96197.66;5031709;28;20182;-61
2021/05/09 07:36:19;;;;;;;1.90;1.80;;;;;;;19.98;45.70;96201.88;5014728;28;20631;-61
2021/05/09 07:38:45;;;;;;;1.55;1.45;;;;;;;19.96;46.28;96188.88;5032687;28;20183;-61
2021/05/09 07:41:10;;;;;;;2.03;1.92;;;;;;;20.13;46.44;96196.22;5031798;28;20198;-61
2021/05/09 07:43:36;;;;;;;1.80;1.70;;;;;;;20.31;45.44;96197.91;5032696;28;20179;-61
2021/05/09 07:46:01;;;;;;;2.10;2.00;;;;;;;20.46;46.25;96194.13;5031762;28;20193;-61
2021/05/09 07:48:27;;;;;;;1.55;1.45;;;;;;;20.45;44.84;96195.25;5032326;28;20213;-61
2021/05/09 07:50:52;;;;;;;2.00;1.90;;;;;;;20.64;44.85;96187.81;5031629;28;20210;-61
2021/05/09 07:53:18;;;;;;;2.40;1.92;;;;;;;20.75;45.37;96183.81;5014398;28;20187;-61
2021/05/09 07:55:44;;;;;;;2.17;2.05;;;;;;;20.72;45.42;96179.88;5032362;28;20244;-61
2021/05/09 07:58:14;;;;;;;2.00;1.90;;;;;;;20.93;44.37;96174.81;5031131;28;20256;-61
2021/05/09 08:00:40;;;;;;;1.92;1.83;;;;;;;21.00;43.65;96177.03;5032011;28;20246;-61
2021/05/09 08:03:05;;;;;;;1.80;1.70;;;;;;;21.01;43.85;96171.38;5012197;28;20269;-61
2021/05/09 08:05:30;;;;;;;2.85;1.80;;;;;;;20.94;44.43;96173.72;5032166;28;20222;-61
2021/05/09 08:07:57;;;;;;;1.60;1.50;;;;;;;20.99;44.28;96167.47;5027936;28;20190;-61
2021/05/09 08:10:25;;;;;;;1.48;1.48;;;;;;;21.05;44.60;96174.22;5014146;28;20586;-61
2021/05/09 08:12:51;;;;;;;2.17;1.70;;;;;;;21.06;44.74;96165.94;5031370;28;20275;-62
2021/05/09 08:15:18;;;;;;;1.88;1.77;;;;;;;21.17;43.69;96163.81;5031378;28;20191;-62
2021/05/09 08:17:45;;;;;;;1.75;1.65;;;;;;;21.20;44.58;96162.38;5031265;28;20190;-62
2021/05/09 08:20:11;;;;;;;1.65;1.60;;;;;;;21.28;43.78;96153.63;5030560;28;20190;-64
2021/05/09 08:22:37;;;;;;;2.10;1.90;;;;;;;21.28;43.25;96151.75;5031638;28;20201;-62
2021/05/09 08:25:05;;;;;;;1.60;1.50;;;;;;;21.39;42.45;96152.25;5031009;28;20178;-63
2021/05/09 08:27:33;;;;;;;1.40;1.40;;;;;;;21.53;42.00;96155.56;5026810;28;20195;-62
2021/05/09 08:29:58;;;;;;;1.58;1.45;;;;;;;21.46;42.64;96144.56;5029873;28;20205;-62
2021/05/09 08:32:24;;;;;;;1.50;1.50;;;;;;;21.67;42.02;96142.88;5013511;28;20191;-62
2021/05/09 08:34:49;;;;;;;1.77;1.67;;;;;;;21.70;42.35;96144.91;5030069;28;20265;-63
2021/05/09 08:37:15;;;;;;;1.30;1.30;;;;;;;21.70;43.27;96141.47;5031134;28;20183;-62
2021/05/09 08:39:40;;;;;;;1.40;1.40;;;;;;;21.95;42.02;96146.84;5012186;28;20182;-62
2021/05/09 08:42:06;;;;;;;1.50;1.50;;;;;;;21.96;42.23;96140.38;5030117;28;20198;-62
2021/05/09 08:44:34;;;;;;;1.50;1.40;;;;;;;22.04;42.12;96146.03;5031203;28;20187;-62
2021/05/09 08:47:02;;;;;;;1.60;1.50;;;;;;;22.19;40.90;96142.88;5030316;28;20186;-62
2021/05/09 08:49:29;;;;;;;1.30;1.30;;;;;;;22.34;40.67;96139.75;5030587;28;20213;-62
2021/05/09 08:51:54;;;;;;;1.77;1.67;;;;;;;22.28;41.48;96143.69;5029390;28;20186;-62
2021/05/09 08:54:19;;;;;;;3.40;1.80;;;;;;;22.26;41.77;96143.97;5031013;28;20186;-62
2021/05/09 08:56:45;;;;;;;3.70;1.80;;;;;;;22.52;42.01;96143.13;5031534;28;20187;-62
2021/05/09 08:59:10;;;;;;;1.52;1.40;;;;;;;22.60;41.76;96137.78;5030056;28;20620;-62
2021/05/09 09:01:40;;;;;;;1.40;1.40;;;;;;;22.66;43.18;96135.72;5030967;28;20261;-62
2021/05/09 09:04:05;;;;;;;1.48;1.48;;;;;;;22.74;43.34;96135.72;5012131;28;20186;-62
2021/05/09 09:06:46;;;;;;;1.35;1.27;;;;;;;22.78;42.66;96130.53;5030406;28;20217;-62
2021/05/09 09:09:26;;;;;;;1.20;1.20;;;;;;;22.91;43.14;96123.38;5029913;28;20409;-62
2021/05/09 09:11:54;;;;;;;1.60;1.50;;;;;;;22.98;41.51;96121.78;5030126;28;20185;-62
2021/05/09 09:14:27;;;;;;;1.20;1.20;;;;;;;23.00;41.14;96124.16;5022429;28;20216;-62
2021/05/09 09:17:15;;;;;;;1.25;1.25;;;;;;;23.07;41.58;96111.81;5030230;28;20171;-62
2021/05/09 09:20:02;;;;;;;1.85;1.67;;;;;;;23.28;40.51;96114.56;5030931;28;20194;-62
2021/05/09 09:22:48;;;;;;;1.33;1.30;;;;;;;23.40;38.86;96103.16;5030898;28;20175;-62
2021/05/09 09:25:13;;;;;;;1.23;1.23;;;;;;;23.42;38.90;96107.06;5029561;28;20191;-62
2021/05/09 09:27:46;;;;;;;1.25;1.00;;;;;;;23.48;38.34;96107.69;5030462;28;20702;-62
2021/05/09 09:30:13;;;;;;;1.10;1.10;;;;;;;23.52;37.86;96097.88;5029673;28;20198;-62
2021/05/09 09:32:38;;;;;;;1.20;1.20;;;;;;;23.58;37.87;96102.72;5012944;28;20194;-62
2021/05/09 09:35:04;;;;;;;1.40;1.30;;;;;;;23.54;37.70;96096.47;5028487;28;20727;-62
2021/05/09 09:37:34;;;;;;;1.60;1.50;;;;;;;23.51;37.54;96088.31;5030169;28;20320;-62
2021/05/09 09:40:02;;;;;;;1.67;1.58;;;;;;;23.58;37.93;96084.00;5030130;28;20187;-61
2021/05/09 09:42:45;;;;;;;2.15;1.30;;;;;;;23.63;38.54;96086.47;5013643;28;20301;-62
2021/05/09 09:45:17;;;;;;;1.88;1.40;;;;;;;23.61;38.34;96078.00;5018346;28;20220;-61
2021/05/09 09:47:52;;;;;;;1.10;1.10;;;;;;;23.75;37.22;96088.44;5031000;28;20210;-62
2021/05/09 09:50:36;;;;;;;3.65;1.52;;;;;;;23.74;37.97;96081.50;5031141;28;20206;-62
2021/05/09 09:53:22;;;;;;;1.05;1.05;;;;;;;23.87;36.67;96067.06;5018872;28;20183;-62
2021/05/09 09:56:01;;;;;;;1.20;1.20;;;;;;;24.00;35.66;96068.69;5034101;28;20197;-63
2021/05/09 09:58:48;;;;;;;1.17;1.10;;;;;;;24.03;36.44;96061.88;5034499;28;20678;-62
2021/05/09 10:01:33;;;;;;;1.08;0.95;;;;;;;24.19;35.76;96060.16;5033254;28;20234;-62
2021/05/09 10:04:01;;;;;;;1.00;1.00;;;;;;;24.30;35.01;96058.63;5017176;28;20515;-62
2021/05/09 10:06:28;;;;;;;1.15;1.15;;;;;;;24.38;35.44;96055.09;5033654;28;20179;-62
2021/05/09 10:08:57;;;;;;;1.15;1.15;;;;;;;24.47;34.66;96046.94;5033387;28;20205;-62
2021/05/09 10:11:23;;;;;;;3.58;1.00;;;;;;;24.50;35.01;96048.19;5033083;28;20187;-62
2021/05/09 10:13:50;;;;;;;1.15;1.15;;;;;;;24.58;33.82;96053.41;5025133;28;20191;-62
2021/05/09 10:16:20;;;;;;;0.90;0.90;;;;;;;24.66;33.90;96046.41;5034595;28;20206;-62
2021/05/09 10:18:49;;;;;;;1.80;1.23;;;;;;;24.68;34.15;96046.84;5034187;28;20233;-61
2021/05/09 10:21:15;;;;;;;1.00;1.00;;;;;;;24.81;32.76;96046.50;5032839;28;20178;-62
2021/05/09 10:24:08;;;;;;;1.13;1.10;;;;;;;24.90;31.66;96040.28;5033057;28;20675;-63
2021/05/09 10:26:59;;;;;;;1.00;1.00;;;;;;;24.96;32.22;96037.06;5032822;28;20187;-63
2021/05/09 10:29:45;;;;;;;1.13;1.00;;;;;;;25.02;32.59;96026.88;5016425;28;20203;-62
2021/05/09 10:32:20;;;;;;;1.20;1.20;;;;;;;25.04;32.19;96027.31;5034062;28;20194;-62
2021/05/09 10:34:55;;;;;;;1.00;1.00;;;;;;;25.08;31.46;96020.13;5033264;28;20189;-62
2021/05/09 10:37:39;;;;;;;1.02;1.02;;;;;;;25.05;30.87;96024.28;5032790;28;20205;-62
2021/05/09 10:40:34;;;;;;;1.10;1.10;;;;;;;25.18;31.26;96023.16;5032705;28;20274;-62
2021/05/09 10:43:03;;;;;;;1.10;0.90;;;;;;;25.21;31.52;96030.53;5017575;28;20225;-62
2021/05/09 10:45:30;;;;;;;1.08;0.98;;;;;;;25.21;30.51;96025.16;5033267;28;20187;-62
2021/05/09 10:48:18;;;;;;;1.20;1.20;;;;;;;25.28;31.48;96021.91;5033253;28;20193;-62
2021/05/09 10:50:45;;;;;;;1.17;1.17;;;;;;;25.33;31.49;96013.63;5033825;28;20216;-62
2021/05/09 10:53:41;;;;;;;1.30;1.30;;;;;;;25.34;31.91;96017.88;5015205;28;20193;-62
2021/05/09 10:56:15;;;;;;;1.40;1.40;;;;;;;25.48;31.30;96017.47;5011974;28;20209;-62
2021/05/09 10:58:46;;;;;;;1.75;1.30;;;;;;;25.61;30.39;96013.66;5033276;28;20182;-63
2021/05/09 11:01:20;;;;;;;1.48;1.48;;;;;;;25.70;29.92;96021.56;5013960;28;20231;-62
2021/05/09 11:03:50;;;;;;;1.83;1.73;;;;;;;25.73;29.27;96015.53;5017830;28;20624;-62
2021/05/09 11:06:15;;;;;;;1.80;1.80;;;;;;;25.76;29.30;96009.47;5033197;28;20682;-63
2021/05/09 11:08:48;;;;;;;2.10;2.00;;;;;;;25.78;29.23;96008.00;5032798;28;20273;-62
2021/05/09 11:11:29;;;;;;;1.98;1.98;;;;;;;25.80;28.42;96008.41;5032420;28;20214;-62
2021/05/09 11:14:01;;;;;;;2.22;2.13;;;;;;;25.84;28.63;95998.56;5022485;28;20190;-63
2021/05/09 11:16:32;;;;;;;2.10;2.00;;;;;;;25.89;28.34;96003.69;5033150;28;20190;-63
2021/05/09 11:19:03;;;;;;;1.90;1.90;;;;;;;25.93;28.20;96007.25;5032254;28;20263;-63
2021/05/09 11:21:34;;;;;;;2.40;2.30;;;;;;;25.93;27.41;96007.25;5008699;28;20643;-63
2021/05/09 11:24:01;;;;;;;2.53;2.42;;;;;;;25.88;28.02;95998.66;5032645;28;20246;-63
2021/05/09 11:26:28;;;;;;;1.98;1.88;;;;;;;25.94;27.84;95997.28;5032871;28;20190;-63
2021/05/09 11:29:24;;;;;;;2.33;2.22;;;;;;;26.02;27.45;95991.78;5031722;28;20183;-63
2021/05/09 11:32:04;;;;;;;1.85;1.85;;;;;;;26.08;27.56;95993.06;5010837;28;20234;-62
2021/05/09 11:34:29;;;;;;;2.50;2.40;;;;;;;26.15;26.91;95983.63;5019750;28;20175;-63
2021/05/09 11:36:57;;;;;;;2.78;2.63;;;;;;;26.19;26.84;95984.50;5013863;28;20185;-63